Time;durP1;ratioP1;P1;durP2;ratioP2;P2;SDS_P1;SDS_P2;PMS_P1;PMS_P2;Temp;Humidity;BMP_temperature;BMP_pressure;BME280_temperature;BME280_humidity;BME280_pressure;Samples;Min_cycle;Max_cycle;Signal;HPM_P1;HPM_P2
2023/08/12 00:02:23;;;;;;;5.30;2.30;;;;;;;11.67;74.09;101195.17;103830;279;38495;-73
2023/08/12 00:04:57;;;;;;;8.00;3.00;;;;;;;11.60;74.02;101192.59;103840;278;39580;-73
2023/08/12 00:07:32;;;;;;;4.10;2.50;;;;;;;11.53;74.30;101197.67;103814;279;38628;-74
2023/08/12 00:10:08;;;;;;;5.90;2.70;;;;;;;11.46;74.26;101198.40;103833;278;40117;-74
2023/08/12 00:12:44;;;;;;;4.90;2.80;;;;;;;11.42;74.45;101198.88;103861;278;39435;-75
2023/08/12 00:15:19;;;;;;;5.70;3.30;;;;;;;11.44;74.54;101201.80;103723;278;174880;-74
2023/08/12 00:17:53;;;;;;;6.80;2.90;;;;;;;11.44;74.73;101200.02;103902;279;39588;-73
2023/08/12 00:20:27;;;;;;;5.80;2.70;;;;;;;11.41;74.81;101199.78;103844;279;38344;-73
2023/08/12 00:23:01;;;;;;;3.80;2.50;;;;;;;11.38;75.15;101201.61;103839;278;38390;-73
2023/08/12 00:25:35;;;;;;;5.20;2.40;;;;;;;11.35;74.99;101201.50;103826;278;38718;-74
2023/08/12 00:28:10;;;;;;;4.10;2.30;;;;;;;11.29;75.05;101198.35;103860;279;40087;-74
2023/08/12 00:30:49;;;;;;;3.70;2.40;;;;;;;11.25;75.01;101197.42;103720;278;188389;-74
2023/08/12 00:33:23;;;;;;;4.80;2.60;;;;;;;11.22;75.23;101197.17;103816;278;38275;-74
2023/08/12 00:35:56;;;;;;;4.70;2.80;;;;;;;11.18;75.40;101197.64;103718;280;38568;-74
2023/08/12 00:38:33;;;;;;;5.80;2.50;;;;;;;11.13;75.48;101198.29;103816;279;38243;-73
2023/08/12 00:41:07;;;;;;;5.90;2.60;;;;;;;11.09;75.66;101197.52;103846;279;38274;-74
2023/08/12 00:43:44;;;;;;;4.80;2.70;;;;;;;11.06;75.69;101199.17;103814;279;38491;-74
2023/08/12 00:46:18;;;;;;;7.10;2.50;;;;;;;11.02;75.90;101198.55;103697;279;39424;-73
2023/08/12 00:48:56;;;;;;;4.60;2.70;;;;;;;11.01;76.03;101199.13;103816;278;38369;-74
2023/08/12 00:51:31;;;;;;;4.40;2.70;;;;;;;10.98;76.16;101196.59;103705;279;40924;-74
2023/08/12 00:54:06;;;;;;;4.70;2.70;;;;;;;10.95;76.30;101195.27;103653;280;38427;-75
2023/08/12 00:56:40;;;;;;;4.50;2.60;;;;;;;10.91;76.32;101195.21;103869;279;39936;-74
2023/08/12 00:59:19;;;;;;;8.30;2.20;;;;;;;10.86;76.51;101195.14;103849;279;38336;-73
2023/08/12 01:01:53;;;;;;;5.70;2.70;;;;;;;10.84;76.59;101192.42;103831;279;39637;-74
2023/08/12 01:04:31;;;;;;;5.20;2.60;;;;;;;10.80;76.64;101195.64;103803;278;38218;-74
2023/08/12 01:07:06;;;;;;;5.90;3.00;;;;;;;10.77;76.86;101196.78;103849;278;38226;-74
2023/08/12 01:09:40;;;;;;;6.60;3.30;;;;;;;10.72;76.83;101194.65;103806;279;38508;-73
2023/08/12 01:12:19;;;;;;;5.50;2.40;;;;;;;10.67;76.99;101190.92;103831;279;38401;-72
2023/08/12 01:15:06;;;;;;;5.80;2.50;;;;;;;10.66;77.17;101186.58;103822;279;38357;-74
2023/08/12 01:17:42;;;;;;;3.80;2.30;;;;;;;10.67;77.42;101189.70;103836;278;39653;-75
2023/08/12 01:20:17;;;;;;;4.60;2.60;;;;;;;10.66;77.48;101190.09;103694;279;37221;-73
2023/08/12 01:22:51;;;;;;;4.80;2.50;;;;;;;10.66;77.61;101190.27;103215;278;904712;-74
2023/08/12 01:25:26;;;;;;;4.50;2.20;;;;;;;10.65;77.71;101191.67;103830;279;38722;-73
2023/08/12 01:28:00;;;;;;;4.10;2.40;;;;;;;10.65;77.74;101188.17;103880;278;38244;-73
2023/08/12 01:30:35;;;;;;;4.40;2.60;;;;;;;10.66;78.01;101190.60;103844;279;38568;-73
2023/08/12 01:33:15;;;;;;;5.80;2.40;;;;;;;10.64;77.91;101188.57;103833;279;38390;-75
2023/08/12 01:36:00;;;;;;;5.20;2.80;;;;;;;10.61;77.87;101185.16;101634;278;3014032;-72
2023/08/12 01:38:38;;;;;;;5.90;2.80;;;;;;;10.55;77.86;101191.39;103792;279;39114;-75
2023/08/12 01:41:13;;;;;;;5.80;2.50;;;;;;;10.52;77.94;101195.84;103854;279;39501;-74
2023/08/12 01:43:47;;;;;;;6.80;3.40;;;;;;;10.51;78.06;101196.38;103707;279;38278;-76
2023/08/12 01:46:21;;;;;;;3.80;2.30;;;;;;;10.49;78.10;101193.48;103726;279;38380;-75
2023/08/12 01:49:00;;;;;;;5.60;3.10;;;;;;;10.46;78.18;101196.49;103812;279;38604;-74
2023/08/12 01:51:39;;;;;;;3.60;2.70;;;;;;;10.44;78.15;101193.24;103702;279;39972;-73
2023/08/12 01:54:14;;;;;;;5.40;2.80;;;;;;;10.43;78.32;101193.10;103847;279;39711;-74
2023/08/12 01:56:48;;;;;;;3.20;2.50;;;;;;;10.41;78.52;101194.72;103872;278;39575;-73
2023/08/12 01:59:22;;;;;;;4.30;2.90;;;;;;;10.37;78.55;101189.23;103825;278;38874;-72
2023/08/12 02:01:56;;;;;;;7.70;3.30;;;;;;;10.33;78.55;101192.82;103867;278;38389;-72
2023/08/12 02:04:31;;;;;;;4.40;3.00;;;;;;;10.29;78.71;101194.13;103835;279;38320;-73
2023/08/12 02:07:06;;;;;;;3.50;2.80;;;;;;;10.25;78.76;101194.38;103739;279;38484;-72
2023/08/12 02:09:41;;;;;;;5.50;3.20;;;;;;;10.22;78.89;101196.19;103820;278;38902;-74
2023/08/12 02:12:15;;;;;;;5.40;3.20;;;;;;;10.20;78.95;101197.27;103709;281;39833;-73
2023/08/12 02:14:49;;;;;;;4.90;3.10;;;;;;;10.19;78.96;101193.63;103777;279;38249;-74
2023/08/12 02:17:23;;;;;;;6.40;3.30;;;;;;;10.17;79.03;101190.88;103859;279;39400;-72
2023/08/12 02:20:00;;;;;;;3.60;3.30;;;;;;;10.14;79.21;101189.38;103797;279;41135;-72
2023/08/12 02:22:35;;;;;;;4.90;3.30;;;;;;;10.12;79.20;101189.95;103752;279;38264;-74
2023/08/12 02:25:11;;;;;;;5.60;3.60;;;;;;;10.07;79.22;101193.38;103793;279;38485;-73
2023/08/12 02:27:46;;;;;;;4.60;3.40;;;;;;;10.04;79.43;101193.62;103799;279;38760;-76
2023/08/12 02:30:20;;;;;;;4.40;3.10;;;;;;;10.02;79.49;101196.63;103825;279;39099;-74
2023/08/12 02:32:54;;;;;;;4.70;2.90;;;;;;;10.00;79.53;101194.95;103845;279;39445;-73
2023/08/12 02:35:28;;;;;;;5.30;3.20;;;;;;;9.99;79.59;101192.52;103784;279;38374;-73
2023/08/12 02:38:02;;;;;;;5.70;3.60;;;;;;;9.99;79.87;101193.21;103755;279;39675;-75
2023/08/12 02:40:38;;;;;;;4.50;3.50;;;;;;;9.96;79.71;101197.11;103783;279;39467;-73
2023/08/12 02:43:12;;;;;;;7.80;3.90;;;;;;;9.97;80.22;101193.25;103837;278;38853;-73
2023/08/12 02:45:51;;;;;;;6.60;3.60;;;;;;;9.99;80.14;101195.13;103827;279;40530;-73
2023/08/12 02:48:28;;;;;;;6.00;4.10;;;;;;;9.98;80.25;101195.50;103845;266;38280;-73
2023/08/12 02:51:03;;;;;;;5.90;4.40;;;;;;;9.99;80.32;101199.30;103887;279;38327;-74
2023/08/12 02:53:37;;;;;;;7.30;4.50;;;;;;;10.04;80.49;101199.20;103666;280;39430;-72
2023/08/12 02:56:11;;;;;;;5.60;4.10;;;;;;;10.03;80.40;101197.48;103747;280;38266;-73
2023/08/12 02:58:47;;;;;;;4.60;3.90;;;;;;;10.00;80.31;101203.98;103832;277;39686;-73
2023/08/12 03:01:21;;;;;;;5.30;4.20;;;;;;;9.96;80.31;101202.16;103874;277;38590;-73
2023/08/12 03:03:55;;;;;;;5.50;4.50;;;;;;;9.94;80.39;101204.48;103847;279;39595;-73
2023/08/12 03:06:32;;;;;;;6.20;4.60;;;;;;;9.93;80.50;101207.11;103840;266;38449;-73
2023/08/12 03:09:06;;;;;;;7.60;4.50;;;;;;;9.89;80.42;101208.61;103810;279;38741;-72
2023/08/12 03:11:40;;;;;;;7.40;4.10;;;;;;;9.85;80.60;101207.45;103830;279;39438;-73
2023/08/12 03:14:15;;;;;;;6.40;3.80;;;;;;;9.83;80.67;101214.64;103813;278;38564;-72
2023/08/12 03:16:49;;;;;;;5.30;4.10;;;;;;;9.82;80.86;101215.37;103771;279;39450;-72
2023/08/12 03:19:28;;;;;;;5.20;4.00;;;;;;;9.80;80.93;101218.19;103846;279;38838;-73
2023/08/12 03:22:00;;;;;;;;;;;;;;;9.79;80.97;101214.74;103886;279;38261;-73
2023/08/12 03:24:34;;;;;;;7.50;4.40;;;;;;;9.72;81.17;101220.98;103759;279;38447;-73
2023/08/12 03:27:10;;;;;;;5.80;4.30;;;;;;;9.70;81.38;101223.46;103717;280;41232;-75
2023/08/12 03:29:45;;;;;;;6.90;4.20;;;;;;;9.69;81.43;101225.06;103827;279;39894;-73
2023/08/12 03:32:19;;;;;;;5.20;4.00;;;;;;;9.69;81.52;101226.27;103877;278;39714;-72
2023/08/12 03:34:54;;;;;;;6.00;4.00;;;;;;;9.72;81.57;101227.27;103813;279;39376;-75
2023/08/12 03:37:30;;;;;;;7.80;4.60;;;;;;;9.78;81.79;101223.47;103197;279;919360;-72
2023/08/12 03:40:07;;;;;;;6.20;4.00;;;;;;;9.82;81.87;101226.34;103858;279;38290;-72
2023/08/12 03:42:41;;;;;;;7.10;4.30;;;;;;;9.83;81.77;101226.84;103874;278;38265;-74
2023/08/12 03:45:16;;;;;;;6.40;4.00;;;;;;;9.86;81.95;101228.02;103167;279;678447;-73
2023/08/12 03:47:53;;;;;;;9.60;3.80;;;;;;;9.90;82.03;101230.71;103842;279;38292;-74
2023/08/12 03:50:29;;;;;;;7.60;4.40;;;;;;;9.94;82.12;101227.30;103826;278;38252;-74
2023/08/12 03:53:04;;;;;;;6.80;4.50;;;;;;;10.01;82.24;101228.73;103876;279;38242;-73
2023/08/12 03:55:38;;;;;;;5.80;4.20;;;;;;;10.08;82.45;101230.66;103652;279;41623;-72
2023/08/12 03:58:12;;;;;;;4.30;3.70;;;;;;;10.14;82.66;101229.66;103869;279;39466;-72
2023/08/12 04:00:50;;;;;;;4.70;3.60;;;;;;;10.23;82.60;101225.29;103824;279;38366;-73
2023/08/12 04:03:27;;;;;;;5.50;3.90;;;;;;;10.52;83.17;101221.98;103865;279;38305;-73
2023/08/12 04:06:01;;;;;;;6.10;3.90;;;;;;;10.71;82.87;101223.64;103875;278;38859;-73
2023/08/12 04:08:36;;;;;;;6.90;4.30;;;;;;;10.86;83.24;101222.54;103847;278;38869;-72
2023/08/12 04:11:09;;;;;;;6.10;3.70;;;;;;;11.10;84.69;101224.19;103876;279;39682;-73
2023/08/12 04:13:43;;;;;;;6.70;4.00;;;;;;;11.25;83.72;101222.39;103836;279;38287;-73
2023/08/12 04:16:19;;;;;;;4.80;3.70;;;;;;;11.28;82.89;101221.96;103853;278;39191;-72
2023/08/12 04:18:58;;;;;;;5.50;3.40;;;;;;;11.31;82.54;101220.65;103844;279;38514;-74
2023/08/12 04:21:32;;;;;;;7.40;4.00;;;;;;;11.36;82.44;101224.52;103863;279;38249;-72
2023/08/12 04:24:07;;;;;;;5.90;4.00;;;;;;;11.45;82.68;101222.71;103812;278;38288;-73
2023/08/12 04:26:41;;;;;;;7.40;4.10;;;;;;;11.55;82.74;101221.23;103885;278;38379;-73
2023/08/12 04:29:16;;;;;;;7.30;4.20;;;;;;;11.64;82.86;101220.24;103733;278;39014;-72
2023/08/12 04:31:52;;;;;;;5.70;4.30;;;;;;;11.73;82.71;101225.77;103852;279;38966;-73
2023/08/12 04:34:28;;;;;;;8.40;4.80;;;;;;;11.80;82.81;101227.65;103827;279;38530;-74
2023/08/12 04:37:03;;;;;;;6.70;4.20;;;;;;;11.92;82.82;101224.90;103825;279;38255;-73
2023/08/12 04:39:39;;;;;;;6.60;4.30;;;;;;;12.02;82.83;101226.86;103694;278;172548;-74
2023/08/12 04:42:15;;;;;;;8.80;4.80;;;;;;;12.11;83.04;101224.66;103751;279;175235;-73
2023/08/12 04:44:50;;;;;;;7.50;4.60;;;;;;;12.20;82.92;101221.23;103830;279;39124;-72
2023/08/12 04:47:26;;;;;;;6.70;4.20;;;;;;;12.31;82.93;101222.45;103817;279;38902;-72
2023/08/12 04:50:03;;;;;;;9.10;5.00;;;;;;;12.45;82.84;101219.05;103849;278;39599;-72
2023/08/12 04:52:38;;;;;;;11.10;6.00;;;;;;;12.72;83.12;101215.00;103863;279;38511;-74
2023/08/12 04:55:12;;;;;;;8.70;5.50;;;;;;;13.31;84.11;101213.33;103845;267;38227;-73
2023/08/12 04:57:49;;;;;;;8.80;5.90;;;;;;;14.37;84.82;101209.63;103848;279;39564;-73
2023/08/12 05:00:23;;;;;;;8.80;5.80;;;;;;;15.62;84.53;101208.32;103557;280;174941;-73
2023/08/12 05:02:58;;;;;;;8.00;5.60;;;;;;;16.94;82.92;101195.63;103860;279;39420;-76
2023/08/12 05:05:31;;;;;;;8.30;5.50;;;;;;;17.99;78.03;101194.61;103853;278;39651;-73
2023/08/12 05:08:07;;;;;;;7.90;5.50;;;;;;;18.44;72.66;101193.85;103866;278;39236;-75
2023/08/12 05:10:41;;;;;;;10.00;5.20;;;;;;;18.35;69.12;101195.46;103836;279;39000;-74
2023/08/12 05:13:28;;;;;;;8.30;5.80;;;;;;;18.05;67.56;101197.87;103863;279;38556;-73
2023/08/12 05:16:02;;;;;;;10.50;5.50;;;;;;;17.79;67.08;101194.70;103876;279;39454;-74
2023/08/12 05:18:36;;;;;;;11.10;5.70;;;;;;;17.58;67.56;101202.89;103824;279;38366;-73
2023/08/12 05:21:10;;;;;;;8.40;5.70;;;;;;;17.40;67.57;101204.88;103867;279;38249;-75
2023/08/12 05:23:44;;;;;;;9.10;5.30;;;;;;;17.28;68.01;101199.17;103873;278;38287;-74
2023/08/12 05:26:22;;;;;;;9.20;5.90;;;;;;;17.23;68.74;101196.77;103843;278;38202;-73
2023/08/12 05:29:00;;;;;;;7.70;5.70;;;;;;;17.31;68.91;101196.02;103807;278;38557;-73
2023/08/12 05:31:38;;;;;;;8.80;5.50;;;;;;;17.42;68.42;101193.34;103805;279;38604;-73
2023/08/12 05:34:12;;;;;;;7.70;5.00;;;;;;;17.53;67.75;101193.41;103819;279;38831;-73
2023/08/12 05:36:49;;;;;;;8.20;4.80;;;;;;;17.72;67.23;101188.36;103825;279;39467;-73
2023/08/12 05:39:23;;;;;;;5.90;5.00;;;;;;;17.89;66.40;101186.20;103832;278;38401;-72
2023/08/12 05:42:01;;;;;;;10.80;5.40;;;;;;;18.35;65.61;101184.64;103893;279;38404;-75
2023/08/12 05:44:36;;;;;;;10.00;5.30;;;;;;;19.06;65.76;101183.50;103685;280;38366;-73
2023/08/12 05:47:16;;;;;;;9.00;4.80;;;;;;;20.09;65.97;101182.17;103765;279;38231;-74
2023/08/12 05:49:49;;;;;;;9.20;4.40;;;;;;;21.19;61.94;101181.75;103823;279;38242;-73
2023/08/12 05:52:27;;;;;;;8.30;4.30;;;;;;;22.34;60.74;101176.99;103818;279;38249;-74
2023/08/12 05:55:01;;;;;;;7.40;4.00;;;;;;;23.61;57.29;101174.17;103851;278;38732;-73
2023/08/12 05:57:37;;;;;;;5.50;3.90;;;;;;;24.82;54.72;101169.90;103859;279;38278;-74
2023/08/12 06:00:16;;;;;;;5.60;3.70;;;;;;;25.79;49.77;101168.27;103880;279;39425;-74
2023/08/12 06:02:50;;;;;;;7.00;3.40;;;;;;;26.52;46.98;101165.81;103690;279;39396;-74
2023/08/12 06:05:25;;;;;;;7.00;3.60;;;;;;;27.30;45.53;101169.52;103829;278;38443;-75
2023/08/12 06:07:59;;;;;;;5.90;3.50;;;;;;;27.96;42.90;101171.91;103749;278;38225;-75
2023/08/12 06:10:34;;;;;;;6.20;3.80;;;;;;;28.49;42.60;101173.56;103828;317;39247;-75
2023/08/12 06:13:13;;;;;;;5.40;3.90;;;;;;;29.09;41.22;101169.99;103858;279;38245;-74
2023/08/12 06:15:51;;;;;;;5.50;3.90;;;;;;;29.76;38.23;101169.43;103694;279;38301;-74
2023/08/12 06:18:26;;;;;;;4.80;3.70;;;;;;;30.22;37.89;101164.13;103755;278;174258;-75
2023/08/12 06:21:00;;;;;;;5.50;3.40;;;;;;;30.84;35.44;101164.86;103743;279;175016;-75
2023/08/12 06:23:34;;;;;;;5.00;3.60;;;;;;;31.27;34.41;101163.09;103837;279;38278;-75
2023/08/12 06:26:09;;;;;;;8.20;3.90;;;;;;;31.55;34.36;101169.59;103870;279;38449;-76
2023/08/12 06:28:48;;;;;;;6.50;4.20;;;;;;;31.89;33.88;101169.71;103823;278;39444;-75
2023/08/12 06:31:22;;;;;;;6.00;3.70;;;;;;;32.28;32.37;101171.42;103819;279;38237;-75
2023/08/12 06:34:00;;;;;;;6.20;3.40;;;;;;;32.46;32.06;101171.34;103722;279;174227;-75
2023/08/12 06:36:35;;;;;;;5.90;3.60;;;;;;;32.59;31.96;101176.30;103837;279;39545;-75
2023/08/12 06:39:11;;;;;;;6.40;3.20;;;;;;;32.42;31.11;101177.02;103837;278;38796;-75
2023/08/12 06:41:45;;;;;;;5.10;3.00;;;;;;;32.12;30.85;101175.70;103871;279;38833;-75
2023/08/12 06:44:22;;;;;;;4.80;2.90;;;;;;;31.94;31.12;101178.55;103842;278;38383;-75
2023/08/12 06:46:57;;;;;;;4.10;2.60;;;;;;;31.86;30.94;101180.02;103799;279;39156;-75
2023/08/12 06:49:33;;;;;;;4.60;2.90;;;;;;;31.88;30.61;101176.27;103809;278;38571;-74
2023/08/12 06:52:13;;;;;;;6.40;3.20;;;;;;;31.75;30.41;101174.60;103851;279;38336;-75
2023/08/12 06:54:48;;;;;;;4.40;2.70;;;;;;;31.63;30.04;101169.08;103712;279;38256;-78
2023/08/12 06:57:23;;;;;;;4.30;2.20;;;;;;;31.45;31.07;101167.33;103839;279;38803;-75
2023/08/12 06:59:59;;;;;;;5.30;2.80;;;;;;;31.16;31.34;101169.11;103775;279;39706;-77
2023/08/12 07:02:34;;;;;;;5.30;2.50;;;;;;;30.70;31.55;101166.77;103818;278;38339;-77
2023/08/12 07:05:12;;;;;;;4.20;1.80;;;;;;;30.24;31.58;101169.98;103809;279;38379;-76
2023/08/12 07:07:49;;;;;;;4.40;2.60;;;;;;;29.66;31.60;101169.89;103772;279;38386;-74
2023/08/12 07:10:24;;;;;;;4.50;2.40;;;;;;;29.28;32.73;101167.85;103857;278;38581;-74
2023/08/12 07:12:58;;;;;;;5.10;2.10;;;;;;;28.97;33.20;101169.78;103838;279;39766;-75
2023/08/12 07:15:33;;;;;;;3.00;2.30;;;;;;;28.87;33.09;101170.58;103836;279;39707;-75
2023/08/12 07:18:10;;;;;;;3.50;2.30;;;;;;;28.76;31.69;101168.33;103852;279;38708;-75
2023/08/12 07:20:44;;;;;;;4.90;2.10;;;;;;;28.62;31.27;101165.67;103825;279;39816;-74
2023/08/12 07:23:22;;;;;;;4.70;1.80;;;;;;;28.32;30.05;101168.30;103717;279;38262;-75
2023/08/12 07:25:57;;;;;;;3.80;2.10;;;;;;;28.23;31.41;101168.48;103829;278;39723;-75
2023/08/12 07:28:31;;;;;;;5.30;2.20;;;;;;;28.26;31.33;101164.14;103844;278;38550;-74
2023/08/12 07:31:06;;;;;;;4.20;1.90;;;;;;;28.47;31.58;101163.92;103870;278;39823;-75
2023/08/12 07:33:43;;;;;;;3.40;2.00;;;;;;;28.78;31.80;101163.58;103804;279;38690;-75
2023/08/12 07:36:22;;;;;;;4.10;2.20;;;;;;;29.16;32.15;101159.13;103864;278;39605;-75
2023/08/12 07:38:56;;;;;;;4.90;1.90;;;;;;;29.60;31.78;101155.59;103796;279;38693;-74
2023/08/12 07:41:32;;;;;;;4.10;2.00;;;;;;;29.90;31.13;101151.20;103852;279;38232;-75
2023/08/12 07:44:09;;;;;;;3.70;1.90;;;;;;;30.12;30.66;101146.85;103790;279;38424;-75
2023/08/12 07:46:50;;;;;;;3.30;1.70;;;;;;;30.49;29.51;101140.95;103878;279;38913;-75
2023/08/12 07:49:24;;;;;;;3.80;2.10;;;;;;;31.04;29.59;101141.36;103832;271;39549;-76
2023/08/12 07:51:59;;;;;;;3.10;1.60;;;;;;;31.67;28.87;101140.41;103894;279;39371;-76
2023/08/12 07:54:33;;;;;;;6.60;2.00;;;;;;;32.46;27.76;101136.27;103826;278;39703;-76
2023/08/12 07:57:10;;;;;;;4.40;2.00;;;;;;;33.11;26.42;101132.52;103765;280;39491;-76
2023/08/12 07:59:47;;;;;;;;;;;;;;;33.70;25.86;101136.93;103823;278;38673;-76
2023/08/12 08:02:21;;;;;;;3.20;1.70;;;;;;;34.14;24.72;101131.41;103743;279;38097;-75
2023/08/12 08:04:55;;;;;;;3.00;1.70;;;;;;;34.77;24.25;101128.96;103823;278;38725;-75
2023/08/12 08:07:29;;;;;;;4.80;2.10;;;;;;;35.14;23.79;101130.92;103852;279;38950;-75
2023/08/12 08:10:10;;;;;;;3.30;1.90;;;;;;;35.67;23.49;101133.35;103715;279;38282;-76
2023/08/12 08:12:45;;;;;;;2.60;1.50;;;;;;;36.04;22.21;101127.64;103682;279;173950;-76
2023/08/12 08:15:19;;;;;;;3.40;1.50;;;;;;;36.29;21.38;101128.42;103810;279;38398;-75
2023/08/12 08:17:54;;;;;;;3.60;1.60;;;;;;;36.28;20.77;101125.90;103875;279;38229;-76
2023/08/12 08:20:28;;;;;;;2.80;1.60;;;;;;;36.18;21.58;101127.20;103832;279;38388;-76
2023/08/12 08:23:02;;;;;;;3.20;1.40;;;;;;;36.45;21.38;101121.91;103798;267;38461;-76
2023/08/12 08:25:36;;;;;;;2.00;1.50;;;;;;;36.77;20.57;101113.83;103783;278;38858;-76
2023/08/12 08:28:16;;;;;;;2.80;1.60;;;;;;;36.98;20.00;101111.54;103745;279;38294;-76
2023/08/12 08:30:55;;;;;;;2.30;1.30;;;;;;;36.91;19.53;101109.31;103812;279;38898;-76
2023/08/12 08:33:29;;;;;;;2.90;1.50;;;;;;;37.01;20.61;101109.92;103817;279;39919;-76
2023/08/12 08:36:03;;;;;;;2.70;1.80;;;;;;;37.34;20.40;101108.68;103700;280;39174;-77
2023/08/12 08:38:37;;;;;;;3.30;1.70;;;;;;;37.51;19.06;101104.39;103839;279;38984;-77
2023/08/12 08:41:11;;;;;;;3.40;1.50;;;;;;;37.41;19.28;101101.08;103850;279;39401;-77
2023/08/12 08:43:47;;;;;;;3.70;1.70;;;;;;;37.57;19.61;101107.44;103811;279;38821;-77
2023/08/12 08:46:25;;;;;;;2.30;1.50;;;;;;;37.80;19.22;101104.21;103849;278;38357;-77
2023/08/12 08:49:11;;;;;;;4.20;1.90;;;;;;;37.92;19.16;101106.09;103812;278;38687;-77
2023/08/12 08:51:45;;;;;;;7.60;1.90;;;;;;;37.92;18.40;101103.95;103864;267;38234;-76
2023/08/12 08:54:19;;;;;;;3.20;2.10;;;;;;;37.84;18.44;101103.58;103703;279;188065;-76
2023/08/12 08:56:54;;;;;;;4.90;2.60;;;;;;;37.62;18.39;101100.20;103830;279;38639;-76
2023/08/12 08:59:28;;;;;;;4.80;2.10;;;;;;;37.55;18.53;101102.35;103830;279;38614;-76
2023/08/12 09:02:02;;;;;;;4.70;2.00;;;;;;;37.68;18.24;101101.81;103828;279;38867;-77
2023/08/12 09:04:36;;;;;;;4.00;2.20;;;;;;;37.79;18.61;101102.92;103798;278;38790;-77
2023/08/12 09:07:13;;;;;;;3.20;1.80;;;;;;;37.77;18.07;101100.30;103845;279;38778;-76
2023/08/12 09:09:55;;;;;;;4.10;2.10;;;;;;;37.83;18.71;101097.48;103817;278;38523;-76
2023/08/12 09:12:33;;;;;;;3.70;1.70;;;;;;;37.90;17.84;101088.11;103848;279;38266;-77
2023/08/12 09:15:10;;;;;;;3.30;1.70;;;;;;;37.63;18.27;101087.71;103807;279;38266;-76
2023/08/12 09:17:46;;;;;;;2.60;1.60;;;;;;;37.72;18.90;101085.34;103862;279;39378;-76
2023/08/12 09:20:22;;;;;;;3.00;1.50;;;;;;;37.84;19.03;101085.39;103848;279;38278;-76
2023/08/12 09:23:02;;;;;;;3.00;1.70;;;;;;;38.03;18.94;101081.59;103831;279;38839;-77
2023/08/12 09:25:38;;;;;;;3.40;1.70;;;;;;;37.97;19.22;101074.17;103833;278;38254;-77
2023/08/12 09:28:13;;;;;;;3.00;2.00;;;;;;;37.90;19.86;101074.92;103738;279;39410;-77
2023/08/12 09:30:54;;;;;;;2.00;1.40;;;;;;;37.89;19.52;101073.58;103582;279;40516;-77
2023/08/12 09:33:28;;;;;;;;;;;;;;;37.66;19.24;101074.81;103829;278;38490;-76
2023/08/12 09:36:02;;;;;;;1.90;1.60;;;;;;;37.14;19.57;101071.80;103851;279;39232;-76
2023/08/12 09:38:36;;;;;;;3.60;1.60;;;;;;;36.65;20.32;101073.61;103794;279;38223;-76
2023/08/12 09:41:10;;;;;;;3.60;1.40;;;;;;;36.22;19.88;101070.06;103841;279;38800;-76
2023/08/12 09:43:47;;;;;;;3.40;2.00;;;;;;;35.56;20.27;101070.98;103695;279;38738;-76
2023/08/12 09:46:22;;;;;;;4.00;1.80;;;;;;;34.87;20.15;101066.23;103818;278;38273;-76
2023/08/12 09:48:59;;;;;;;3.30;1.90;;;;;;;34.34;21.19;101066.14;103826;279;39741;-76
2023/08/12 09:51:42;;;;;;;2.50;1.50;;;;;;;33.92;21.85;101067.02;103699;279;39991;-76
2023/08/12 09:54:19;;;;;;;4.90;1.60;;;;;;;33.36;22.04;101061.67;103838;279;39733;-76
2023/08/12 09:56:58;;;;;;;3.90;2.00;;;;;;;32.86;22.53;101060.20;103893;278;38251;-76
2023/08/12 09:59:35;;;;;;;3.50;1.70;;;;;;;32.48;23.06;101056.58;103684;279;38343;-75
2023/08/12 10:02:09;;;;;;;3.70;1.70;;;;;;;32.17;23.07;101051.94;103849;279;38269;-75
2023/08/12 10:04:45;;;;;;;4.00;1.80;;;;;;;31.77;22.81;101051.46;103837;279;38353;-75
2023/08/12 10:07:23;;;;;;;3.30;1.90;;;;;;;31.36;23.57;101050.15;103846;279;39739;-76
2023/08/12 10:09:57;;;;;;;3.30;1.60;;;;;;;31.14;24.02;101052.39;103824;278;38501;-76
2023/08/12 10:12:38;;;;;;;3.30;1.50;;;;;;;30.82;23.83;101048.69;103826;278;38294;-75
2023/08/12 10:15:18;;;;;;;2.30;1.50;;;;;;;30.61;25.11;101041.42;103864;279;38215;-75
2023/08/12 10:17:54;;;;;;;3.40;1.80;;;;;;;30.57;25.74;101036.68;103841;279;38495;-76
2023/08/12 10:20:29;;;;;;;4.20;1.70;;;;;;;30.61;26.19;101035.97;103818;279;39449;-76
2023/08/12 10:23:06;;;;;;;3.80;1.60;;;;;;;30.65;25.99;101040.22;103752;279;172743;-76
2023/08/12 10:25:40;;;;;;;3.40;1.50;;;;;;;30.69;26.08;101040.27;103861;279;38745;-75
2023/08/12 10:28:14;;;;;;;3.80;1.70;;;;;;;30.69;26.41;101036.69;103837;279;38256;-76
2023/08/12 10:30:56;;;;;;;3.90;1.50;;;;;;;30.66;26.70;101037.70;103837;279;38257;-76
2023/08/12 10:33:30;;;;;;;4.50;2.30;;;;;;;30.61;26.48;101030.45;103805;279;38410;-74
2023/08/12 10:36:04;;;;;;;2.50;1.90;;;;;;;30.47;25.47;101026.48;103765;279;187607;-75
2023/08/12 10:38:42;;;;;;;5.10;2.00;;;;;;;30.18;25.23;101026.97;103848;279;38806;-76
2023/08/12 10:41:30;;;;;;;5.60;1.80;;;;;;;30.00;25.43;101021.23;103878;279;38227;-76
2023/08/12 10:44:10;;;;;;;3.60;1.70;;;;;;;29.79;25.48;101022.27;103797;279;40360;-74
2023/08/12 10:47:03;;;;;;;3.10;1.60;;;;;;;29.66;26.96;101012.98;103843;279;38286;-75
2023/08/12 10:49:49;;;;;;;2.70;1.50;;;;;;;29.73;27.25;101009.29;103787;279;39644;-76
2023/08/12 10:52:32;;;;;;;3.50;1.80;;;;;;;29.78;27.51;101011.75;103852;279;38270;-75
2023/08/12 10:55:23;;;;;;;2.50;1.60;;;;;;;29.83;27.28;101010.90;103680;279;38382;-75
2023/08/12 10:57:59;;;;;;;4.50;1.80;;;;;;;29.84;26.99;101004.52;103850;279;38356;-75
2023/08/12 11:00:34;;;;;;;5.10;1.60;;;;;;;29.82;27.10;101006.87;103833;279;38275;-74
2023/08/12 11:03:08;;;;;;;2.00;1.50;;;;;;;29.83;27.36;101005.14;103832;279;38661;-75
2023/08/12 11:05:42;;;;;;;3.30;1.70;;;;;;;29.81;26.79;101005.20;103806;279;38272;-75
2023/08/12 11:08:19;;;;;;;4.90;1.80;;;;;;;29.59;26.48;101000.27;103849;279;38607;-74
2023/08/12 11:11:03;;;;;;;4.00;1.40;;;;;;;29.46;27.24;100995.70;103820;267;38510;-74
2023/08/12 11:13:41;;;;;;;3.00;1.60;;;;;;;29.52;27.64;100993.93;103728;279;38644;-74
2023/08/12 11:16:18;;;;;;;4.40;1.60;;;;;;;29.57;27.69;100990.20;103821;279;39005;-75
2023/08/12 11:18:53;;;;;;;3.80;1.40;;;;;;;29.58;27.02;100988.30;103831;279;38503;-75
2023/08/12 11:21:27;;;;;;;2.80;1.40;;;;;;;29.59;27.39;100988.70;103869;279;38504;-75
2023/08/12 11:24:05;;;;;;;5.30;1.70;;;;;;;29.64;27.44;100989.41;103240;278;890539;-75
2023/08/12 11:26:39;;;;;;;2.80;1.60;;;;;;;29.66;27.41;100985.98;103822;279;38262;-75
2023/08/12 11:29:18;;;;;;;1.90;1.40;;;;;;;29.43;26.83;100983.02;103841;278;38251;-75
2023/08/12 11:31:53;;;;;;;2.80;1.60;;;;;;;29.26;27.48;100980.80;103882;279;38581;-75
2023/08/12 11:34:27;;;;;;;2.60;1.50;;;;;;;29.23;27.52;100974.80;103810;279;39928;-76
2023/08/12 11:37:01;;;;;;;4.50;1.50;;;;;;;29.15;27.57;100975.61;103877;279;38829;-76
2023/08/12 11:39:38;;;;;;;3.80;1.70;;;;;;;29.08;27.60;100980.75;103806;279;39237;-76
2023/08/12 11:42:12;;;;;;;4.70;1.80;;;;;;;29.04;27.53;100977.58;103811;278;38240;-76
2023/08/12 11:44:46;;;;;;;3.40;2.00;;;;;;;28.98;27.51;100974.08;103116;280;765830;-76
2023/08/12 11:47:20;;;;;;;4.10;1.60;;;;;;;28.87;26.98;100974.83;103864;279;38863;-74
2023/08/12 11:49:59;;;;;;;3.20;1.70;;;;;;;28.74;27.81;100974.94;103819;279;39402;-74
2023/08/12 11:52:34;;;;;;;3.10;1.40;;;;;;;28.76;28.61;100969.16;103851;279;38814;-75
2023/08/12 11:55:17;;;;;;;4.30;1.70;;;;;;;28.78;28.34;100963.61;103807;279;39454;-74
2023/08/12 11:57:59;;;;;;;2.60;1.50;;;;;;;28.73;28.38;100966.30;103832;278;39980;-74
2023/08/12 12:00:35;;;;;;;4.10;1.70;;;;;;;28.71;28.61;100962.27;103795;279;39695;-75
2023/08/12 12:03:11;;;;;;;3.70;2.00;;;;;;;28.68;28.58;100963.70;103861;279;38274;-75
2023/08/12 12:05:46;;;;;;;2.00;1.40;;;;;;;28.67;28.73;100958.65;103804;278;38292;-76
2023/08/12 12:08:38;;;;;;;4.60;1.40;;;;;;;28.59;28.15;100954.80;103796;279;38484;-74